createdAt,value
2022-12-14T00:02:45.798Z,48.47
2022-12-14T00:05:32.909Z,44.70
2022-12-14T00:08:19.884Z,48.00
2022-12-14T00:11:07.164Z,40.53
2022-12-14T00:13:59.525Z,44.60
2022-12-14T00:16:46.525Z,49.33
2022-12-14T00:19:33.474Z,43.17
2022-12-14T00:22:20.491Z,46.57
2022-12-14T00:25:07.768Z,42.53
2022-12-14T00:27:54.757Z,44.23
2022-12-14T00:30:41.812Z,41.60
2022-12-14T00:33:28.860Z,46.53
2022-12-14T00:36:16.315Z,47.00
2022-12-14T00:39:03.962Z,48.63
2022-12-14T00:41:50.942Z,42.97
2022-12-14T00:44:37.848Z,47.73
2022-12-14T00:47:25.038Z,43.30
2022-12-14T00:50:11.964Z,43.47
2022-12-14T00:52:58.925Z,36.60
2022-12-14T00:55:49.031Z,42.07
2022-12-14T00:58:36.586Z,40.53
2022-12-14T01:01:23.609Z,38.67
2022-12-14T01:04:21.709Z,41.70
2022-12-14T01:07:08.744Z,41.17
2022-12-14T01:09:55.721Z,38.00
2022-12-14T01:12:42.906Z,43.43
2022-12-14T01:15:29.911Z,41.13
2022-12-14T01:18:17.201Z,45.47
2022-12-14T01:21:19.780Z,37.80
2022-12-14T01:24:07.138Z,42.73
2022-12-14T01:26:54.162Z,37.57
2022-12-14T01:29:41.544Z,36.47
2022-12-14T01:32:28.616Z,38.03
2022-12-14T01:35:15.700Z,42.40
2022-12-14T01:38:02.648Z,36.50
2022-12-14T01:40:49.657Z,37.23
2022-12-14T01:44:16.309Z,39.47
2022-12-14T01:47:12.435Z,46.47
2022-12-14T01:50:19.926Z,41.13
2022-12-14T01:53:12.073Z,39.27
2022-12-14T01:55:59.123Z,41.80
2022-12-14T01:58:46.095Z,37.57
2022-12-14T02:01:33.705Z,41.43
2022-12-14T02:04:21.236Z,38.90
2022-12-14T02:07:09.234Z,37.67
2022-12-14T02:09:58.588Z,35.33
2022-12-14T02:12:53.132Z,36.90
2022-12-14T02:15:41.476Z,42.33
2022-12-14T02:18:31.359Z,41.00
2022-12-14T02:22:01.468Z,34.93
2022-12-14T02:25:16.375Z,39.00
2022-12-14T02:28:15.344Z,34.47
2022-12-14T02:31:16.474Z,42.17
2022-12-14T02:34:26.223Z,40.53
2022-12-14T02:37:32.313Z,37.57
2022-12-14T02:40:36.618Z,38.93
2022-12-14T02:43:41.485Z,37.57
2022-12-14T02:46:53.803Z,39.13
2022-12-14T02:49:56.980Z,39.30
2022-12-14T02:53:02.177Z,36.57
2022-12-14T02:55:52.015Z,31.87
2022-12-14T02:58:50.607Z,42.07
2022-12-14T03:01:40.093Z,36.93
2022-12-14T03:04:27.116Z,36.07
2022-12-14T03:07:34.136Z,38.53
2022-12-14T03:10:36.567Z,38.80
2022-12-14T03:13:49.197Z,38.03
2022-12-14T03:16:50.868Z,33.33
2022-12-14T03:19:42.684Z,37.67
2022-12-14T03:22:55.856Z,39.60
2022-12-14T03:25:47.711Z,38.20
2022-12-14T03:28:44.794Z,38.17
2022-12-14T03:31:49.158Z,34.00
2022-12-14T03:34:42.106Z,39.10
2022-12-14T03:37:41.790Z,39.37
2022-12-14T03:40:39.146Z,34.30
2022-12-14T03:43:34.954Z,41.97
2022-12-14T03:46:32.216Z,40.27
2022-12-14T03:49:39.854Z,36.03
2022-12-14T03:52:35.256Z,35.33
2022-12-14T03:55:42.738Z,37.07
2022-12-14T03:58:42.541Z,34.73
2022-12-14T04:01:54.892Z,39.63
2022-12-14T04:04:48.487Z,37.13
2022-12-14T04:07:44.757Z,39.50
2022-12-14T04:11:06.184Z,37.83
2022-12-14T04:14:34.325Z,38.20
2022-12-14T04:17:47.761Z,34.43
2022-12-14T04:21:20.182Z,32.50
2022-12-14T04:24:40.181Z,33.00
2022-12-14T04:27:45.881Z,33.10
2022-12-14T04:30:38.944Z,37.90
2022-12-14T04:33:45.424Z,38.83
2022-12-14T04:36:56.670Z,29.17
2022-12-14T04:40:09.836Z,34.03
2022-12-14T04:43:01.669Z,28.87
2022-12-14T04:46:12.705Z,33.23
2022-12-14T04:49:08.882Z,36.40
2022-12-14T04:52:05.597Z,34.83
2022-12-14T04:55:07.470Z,36.87
2022-12-14T04:58:02.674Z,31.73
2022-12-14T05:01:10.648Z,33.93
2022-12-14T05:04:04.516Z,27.70
2022-12-14T05:07:14.536Z,34.30
2022-12-14T05:10:16.567Z,30.67
2022-12-14T05:13:21.479Z,34.23
2022-12-14T05:16:08.820Z,31.63
2022-12-14T05:18:55.820Z,29.17
2022-12-14T05:21:48.683Z,33.60
2022-12-14T05:24:35.764Z,33.00
2022-12-14T05:27:22.676Z,34.37
2022-12-14T05:30:10.351Z,34.80
2022-12-14T05:32:57.664Z,37.03
2022-12-14T05:35:44.722Z,38.03
2022-12-14T05:38:31.669Z,35.73
2022-12-14T05:41:18.648Z,35.60
2022-12-14T05:44:05.614Z,33.17
2022-12-14T05:46:52.637Z,33.67
2022-12-14T05:49:39.826Z,38.10
2022-12-14T05:52:27.143Z,40.83
2022-12-14T05:55:14.136Z,31.30
2022-12-14T05:58:01.484Z,34.57
2022-12-14T06:00:48.409Z,34.33
2022-12-14T06:03:35.442Z,31.13
2022-12-14T06:06:22.424Z,30.50
2022-12-14T06:09:13.584Z,32.53
2022-12-14T06:12:00.634Z,33.63
2022-12-14T06:14:47.687Z,31.03
2022-12-14T06:17:34.593Z,38.53
2022-12-14T06:20:21.566Z,36.87
2022-12-14T06:23:08.491Z,35.30
2022-12-14T06:25:56.281Z,34.97
2022-12-14T06:28:43.928Z,39.57
2022-12-14T06:31:32.775Z,41.07
2022-12-14T06:34:24.842Z,32.27
2022-12-14T06:37:15.126Z,36.20
2022-12-14T06:40:02.118Z,32.03
2022-12-14T06:42:49.156Z,30.43
2022-12-14T06:45:36.217Z,31.53
2022-12-14T06:48:23.221Z,33.23
2022-12-14T06:51:10.409Z,38.60
2022-12-14T06:53:58.556Z,38.57
2022-12-14T06:56:47.330Z,34.23
2022-12-14T06:59:34.238Z,34.80
2022-12-14T07:02:21.503Z,41.17
2022-12-14T07:05:08.794Z,34.70
2022-12-14T07:07:55.780Z,32.30
2022-12-14T07:10:42.790Z,29.93
2022-12-14T07:13:30.090Z,36.47
2022-12-14T07:16:22.560Z,31.87
2022-12-14T07:19:11.342Z,31.47
2022-12-14T07:22:04.044Z,33.97
2022-12-14T07:24:50.971Z,43.77
2022-12-14T07:27:37.887Z,35.87
2022-12-14T07:30:24.769Z,41.03
2022-12-14T07:33:11.704Z,39.20
2022-12-14T07:36:07.464Z,37.43
2022-12-14T07:38:58.048Z,33.60
2022-12-14T07:41:47.206Z,38.30
2022-12-14T07:44:35.902Z,38.47
2022-12-14T07:47:22.933Z,37.50
2022-12-14T07:50:12.105Z,40.57
2022-12-14T07:53:00.322Z,40.13
2022-12-14T07:55:47.534Z,39.27
2022-12-14T07:58:35.331Z,35.67
2022-12-14T08:01:31.281Z,37.23
2022-12-14T08:04:19.895Z,39.47
2022-12-14T08:07:06.921Z,38.70
2022-12-14T08:09:53.994Z,38.43
2022-12-14T08:12:41.764Z,34.70
2022-12-14T08:15:28.970Z,35.77
2022-12-14T08:18:15.993Z,33.73
2022-12-14T08:21:04.874Z,37.23
2022-12-14T08:23:53.335Z,37.60
2022-12-14T08:26:40.458Z,35.33
2022-12-14T08:29:27.419Z,35.47
2022-12-14T08:32:14.431Z,36.53
2022-12-14T08:35:01.396Z,37.53
2022-12-14T08:37:48.452Z,37.83
2022-12-14T08:40:36.156Z,36.23
2022-12-14T08:43:25.481Z,38.93
2022-12-14T08:46:12.586Z,33.53
2022-12-14T08:49:00.132Z,38.83
2022-12-14T08:51:51.172Z,36.90
2022-12-14T08:54:38.314Z,34.80
2022-12-14T08:57:25.464Z,33.93
2022-12-14T09:00:13.288Z,33.17
2022-12-14T09:03:00.390Z,34.07
2022-12-14T09:05:47.562Z,37.80
2022-12-14T09:08:35.657Z,32.77
2022-12-14T09:11:23.135Z,35.93
2022-12-14T09:14:10.854Z,32.43
2022-12-14T09:16:58.356Z,36.20
2022-12-14T09:19:45.329Z,32.40
2022-12-14T09:22:32.599Z,39.17
2022-12-14T09:25:20.223Z,32.43
2022-12-14T09:28:07.422Z,31.47
2022-12-14T09:30:59.664Z,33.27
2022-12-14T09:33:48.460Z,31.40
2022-12-14T09:36:36.208Z,32.50
2022-12-14T09:39:25.653Z,33.30
2022-12-14T09:42:50.823Z,36.00
2022-12-14T09:45:50.837Z,37.77
2022-12-14T09:48:38.768Z,34.10
2022-12-14T09:51:49.632Z,33.97
2022-12-14T09:54:40.733Z,36.97
2022-12-14T09:57:37.231Z,32.80
2022-12-14T10:00:26.628Z,41.80
2022-12-14T10:03:42.362Z,37.07
2022-12-14T10:06:34.219Z,33.13
2022-12-14T10:09:36.487Z,30.13
2022-12-14T10:12:53.102Z,34.33
2022-12-14T10:16:20.293Z,36.30
2022-12-14T10:19:26.141Z,32.23
2022-12-14T10:22:25.439Z,34.10
2022-12-14T10:25:25.858Z,27.33
2022-12-14T10:28:38.070Z,30.47
2022-12-14T10:32:03.405Z,26.57
2022-12-14T10:34:53.141Z,26.63
2022-12-14T10:37:48.755Z,23.83
2022-12-14T10:40:39.055Z,26.13
2022-12-14T10:43:43.922Z,28.93
2022-12-14T10:46:47.489Z,26.87
2022-12-14T10:49:44.762Z,24.40
2022-12-14T10:52:38.698Z,22.90
2022-12-14T10:55:33.725Z,24.13
2022-12-14T10:58:20.749Z,26.03
2022-12-14T11:01:20.003Z,21.97
2022-12-14T11:04:29.771Z,22.17
2022-12-14T11:07:19.960Z,25.40
2022-12-14T11:10:23.271Z,23.90
2022-12-14T11:13:13.170Z,20.63
2022-12-14T11:16:18.211Z,23.60
2022-12-14T11:19:21.205Z,20.50
2022-12-14T11:22:21.770Z,18.97
2022-12-14T11:25:41.061Z,21.77
2022-12-14T11:28:41.322Z,20.43
2022-12-14T11:31:34.792Z,19.90
2022-12-14T11:34:30.705Z,20.83
2022-12-14T11:37:27.622Z,18.37
2022-12-14T11:40:25.477Z,18.47
2022-12-14T11:43:27.382Z,15.97
2022-12-14T11:46:16.246Z,18.03
2022-12-14T11:49:03.443Z,16.13
2022-12-14T11:52:06.095Z,17.13
2022-12-14T11:54:54.399Z,21.23
2022-12-14T11:57:50.244Z,20.53
2022-12-14T12:00:49.824Z,20.57
2022-12-14T12:03:58.916Z,17.47
2022-12-14T12:06:46.405Z,20.57
2022-12-14T12:09:41.252Z,18.60
2022-12-14T12:12:28.429Z,18.77
2022-12-14T12:15:24.304Z,18.83
2022-12-14T12:18:20.261Z,17.97
2022-12-14T12:21:29.076Z,19.03
2022-12-14T12:24:29.589Z,19.03
2022-12-14T12:27:18.387Z,18.37
2022-12-14T12:30:13.918Z,17.30
2022-12-14T12:33:27.867Z,15.50
2022-12-14T12:36:23.455Z,15.93
2022-12-14T12:39:16.258Z,19.03
2022-12-14T12:42:24.893Z,18.90
2022-12-14T12:45:27.498Z,17.57
2022-12-14T12:48:14.369Z,18.33
2022-12-14T12:51:06.085Z,19.07
2022-12-14T12:54:00.170Z,17.63
2022-12-14T12:56:51.061Z,22.50
2022-12-14T12:59:47.060Z,18.87
2022-12-14T13:02:45.585Z,20.30
2022-12-14T13:05:49.015Z,17.63
2022-12-14T13:08:40.245Z,16.77
2022-12-14T13:11:39.761Z,17.57
2022-12-14T13:14:42.446Z,20.30
2022-12-14T13:17:47.162Z,17.70
2022-12-14T13:20:36.449Z,16.37
2022-12-14T13:23:45.199Z,17.80
2022-12-14T13:26:57.739Z,18.53
2022-12-14T13:30:10.011Z,21.83
2022-12-14T13:33:16.271Z,19.83
2022-12-14T13:36:30.803Z,17.47
2022-12-14T13:39:39.412Z,19.03
2022-12-14T13:42:52.226Z,26.70
2022-12-14T13:45:43.204Z,24.30
2022-12-14T13:48:40.089Z,26.37
2022-12-14T13:51:29.872Z,24.00
2022-12-14T13:54:27.924Z,23.30
2022-12-14T13:57:23.345Z,23.80
2022-12-14T14:00:45.692Z,26.57
2022-12-14T14:03:36.035Z,28.53
2022-12-14T14:06:36.034Z,25.70
2022-12-14T14:09:26.178Z,24.43
2022-12-14T14:12:32.010Z,25.93
2022-12-14T14:15:33.068Z,24.70
2022-12-14T14:18:25.620Z,22.73
2022-12-14T14:21:12.481Z,23.73
2022-12-14T14:24:06.626Z,25.07
2022-12-14T14:27:22.458Z,21.93
2022-12-14T14:30:33.952Z,24.93
2022-12-14T14:33:50.093Z,24.00
2022-12-14T14:36:37.681Z,25.67
2022-12-14T14:39:58.928Z,25.10
2022-12-14T14:42:50.181Z,24.33
2022-12-14T14:45:48.146Z,25.30
2022-12-14T14:48:37.003Z,24.43
2022-12-14T14:51:26.871Z,25.23
2022-12-14T14:54:44.859Z,27.07
2022-12-14T14:58:16.203Z,25.67
2022-12-14T15:01:29.193Z,25.80
2022-12-14T15:04:42.602Z,25.87
2022-12-14T15:07:31.171Z,26.30
2022-12-14T15:10:38.629Z,27.77
2022-12-14T15:13:31.696Z,28.10
2022-12-14T15:16:43.286Z,33.67
2022-12-14T15:19:36.477Z,23.97
2022-12-14T15:22:41.537Z,26.53
2022-12-14T15:25:30.312Z,28.33
2022-12-14T15:28:22.885Z,27.17
2022-12-14T15:31:10.036Z,28.00
2022-12-14T15:33:58.579Z,26.20
2022-12-14T15:36:48.454Z,27.07
2022-12-14T15:39:43.699Z,26.37
2022-12-14T15:42:30.692Z,27.43
2022-12-14T15:45:21.233Z,29.20
2022-12-14T15:48:26.996Z,22.73
2022-12-14T15:51:18.312Z,27.60
2022-12-14T15:54:07.778Z,27.53
2022-12-14T15:56:57.508Z,28.07
2022-12-14T15:59:45.763Z,28.93
2022-12-14T16:02:42.070Z,28.13
2022-12-14T16:05:30.332Z,27.40
2022-12-14T16:08:17.483Z,28.60
2022-12-14T16:11:11.693Z,28.30
2022-12-14T16:14:01.475Z,27.83
2022-12-14T16:16:48.988Z,27.93
2022-12-14T16:19:57.586Z,27.30
2022-12-14T16:23:01.949Z,25.47
2022-12-14T16:26:14.997Z,28.17
2022-12-14T16:29:09.856Z,30.33
2022-12-14T16:32:02.537Z,35.63
2022-12-14T16:34:59.568Z,34.80
2022-12-14T16:37:54.394Z,31.10
2022-12-14T16:40:59.536Z,31.43
2022-12-14T16:43:56.229Z,30.13
2022-12-14T16:47:03.090Z,30.00
2022-12-14T16:49:50.915Z,31.13
2022-12-14T16:52:38.322Z,31.67
2022-12-14T16:55:26.830Z,31.90
2022-12-14T16:58:17.792Z,28.93
2022-12-14T17:01:07.982Z,35.23
2022-12-14T17:04:04.045Z,32.50
2022-12-14T17:06:53.417Z,30.77
2022-12-14T17:09:40.444Z,39.83
2022-12-14T17:12:27.614Z,34.80
2022-12-14T17:15:27.752Z,33.47
2022-12-14T17:18:14.766Z,33.00
2022-12-14T17:21:02.818Z,31.00
2022-12-14T17:23:49.789Z,33.40
2022-12-14T17:26:36.746Z,34.87
2022-12-14T17:29:26.419Z,34.83
2022-12-14T17:32:15.999Z,36.13
2022-12-14T17:35:03.909Z,39.67
2022-12-14T17:37:51.918Z,36.37
2022-12-14T17:40:39.137Z,38.90
2022-12-14T17:43:28.222Z,38.43
2022-12-14T17:46:16.124Z,39.17
2022-12-14T17:49:06.768Z,39.40
2022-12-14T17:51:54.275Z,37.10
2022-12-14T17:54:42.567Z,36.97
2022-12-14T17:57:32.488Z,36.10
2022-12-14T18:00:44.775Z,35.93
2022-12-14T18:03:36.616Z,43.03
2022-12-14T18:06:25.098Z,43.83
2022-12-14T18:09:12.890Z,44.23
2022-12-14T18:12:22.510Z,44.73
2022-12-14T18:15:27.145Z,44.80
2022-12-14T18:18:16.286Z,54.50
2022-12-14T18:21:05.056Z,48.90
2022-12-14T18:23:54.433Z,42.30
2022-12-14T18:26:43.656Z,46.70
2022-12-14T18:29:38.946Z,52.97
2022-12-14T18:32:27.350Z,50.53
2022-12-14T18:35:20.684Z,55.10
2022-12-14T18:38:09.702Z,56.57
2022-12-14T18:40:59.487Z,50.37
2022-12-14T18:43:59.532Z,47.73
2022-12-14T18:46:49.655Z,50.57
2022-12-14T18:49:38.343Z,48.57
2022-12-14T18:52:26.645Z,44.50
2022-12-14T18:55:23.816Z,42.70
2022-12-14T18:58:18.319Z,49.63
2022-12-14T19:01:10.177Z,47.87
2022-12-14T19:04:02.796Z,45.03
2022-12-14T19:06:53.759Z,50.67
2022-12-14T19:09:43.864Z,48.80
2022-12-14T19:12:34.087Z,46.07
2022-12-14T19:15:38.712Z,43.70
2022-12-14T19:18:30.745Z,50.40
2022-12-14T19:24:34.793Z,47.97
2022-12-14T19:27:43.945Z,52.60
2022-12-14T19:30:30.362Z,55.60
2022-12-14T19:33:17.369Z,50.00
2022-12-14T19:36:08.715Z,50.13
2022-12-14T19:38:55.788Z,47.70
2022-12-14T19:41:42.911Z,48.60
2022-12-14T19:44:36.044Z,54.80
2022-12-14T19:47:22.997Z,49.27
2022-12-14T19:50:13.777Z,53.17
2022-12-14T19:53:00.780Z,51.23
2022-12-14T19:55:53.880Z,46.43
2022-12-14T19:58:40.988Z,47.47
2022-12-14T20:01:32.923Z,53.33
2022-12-14T20:04:20.495Z,46.53
2022-12-14T20:07:08.651Z,48.80
2022-12-14T20:09:55.658Z,50.93
2022-12-14T20:12:42.855Z,51.90
2022-12-14T20:15:29.950Z,50.10
2022-12-14T20:18:17.128Z,47.20
2022-12-14T20:21:06.792Z,49.43
2022-12-14T20:23:53.813Z,48.90
2022-12-14T20:26:41.149Z,57.40
2022-12-14T20:29:28.623Z,56.73
2022-12-14T20:32:16.254Z,49.07
2022-12-14T20:35:05.603Z,55.30
2022-12-14T20:37:54.162Z,45.67
2022-12-14T20:40:43.197Z,49.17
2022-12-14T20:43:35.044Z,52.90
2022-12-14T20:46:26.788Z,50.53
2022-12-14T20:49:17.104Z,46.50
2022-12-14T20:52:05.668Z,53.57
2022-12-14T20:54:53.745Z,46.20
2022-12-14T20:57:40.884Z,47.97
2022-12-14T21:00:28.444Z,52.00
2022-12-14T21:03:15.926Z,46.67
2022-12-14T21:06:03.423Z,48.20
2022-12-14T21:09:05.459Z,48.80
2022-12-14T21:12:11.278Z,48.83
2022-12-14T21:14:59.571Z,49.63
2022-12-14T21:17:46.626Z,45.60
2022-12-14T21:20:33.680Z,58.07
2022-12-14T21:23:20.764Z,47.70
2022-12-14T21:26:08.163Z,51.20
2022-12-14T21:28:58.580Z,42.57
2022-12-14T21:31:46.701Z,50.43
2022-12-14T21:34:34.165Z,49.77
2022-12-14T21:37:22.114Z,44.33
2022-12-14T21:40:29.436Z,45.43
2022-12-14T21:43:16.481Z,41.70
2022-12-14T21:46:04.050Z,45.77
2022-12-14T21:48:51.118Z,45.83
2022-12-14T21:51:38.749Z,46.97
2022-12-14T21:54:25.934Z,47.07
2022-12-14T21:57:37.637Z,48.77
2022-12-14T22:00:24.692Z,44.47
2022-12-14T22:03:12.474Z,47.10
2022-12-14T22:05:59.932Z,41.80
2022-12-14T22:08:46.897Z,40.67
2022-12-14T22:11:33.989Z,43.63
2022-12-14T22:14:23.305Z,41.70
2022-12-14T22:17:11.728Z,43.63
2022-12-14T22:19:59.547Z,37.67
2022-12-14T22:22:46.589Z,52.40
2022-12-14T22:25:33.513Z,45.40
2022-12-14T22:28:21.008Z,41.27
2022-12-14T22:31:07.990Z,42.73
2022-12-14T22:33:55.208Z,41.47
2022-12-14T22:36:42.152Z,45.73
2022-12-14T22:39:29.255Z,40.60
2022-12-14T22:42:16.588Z,40.93
2022-12-14T22:45:04.060Z,41.73
2022-12-14T22:47:50.986Z,40.60
2022-12-14T22:50:37.957Z,44.97
2022-12-14T22:53:24.932Z,46.17
2022-12-14T22:56:23.970Z,45.37
2022-12-14T22:59:30.416Z,49.57
2022-12-14T23:02:17.700Z,42.37
2022-12-14T23:05:06.744Z,42.27
2022-12-14T23:07:53.663Z,43.17
2022-12-14T23:10:59.393Z,42.77
2022-12-14T23:14:04.869Z,43.90
2022-12-14T23:17:10.316Z,42.50
2022-12-14T23:20:15.853Z,46.47
2022-12-14T23:23:24.997Z,41.70
2022-12-14T23:26:30.095Z,42.10
2022-12-14T23:29:35.744Z,37.50
2022-12-14T23:32:41.592Z,43.53
2022-12-14T23:35:47.202Z,42.47
2022-12-14T23:38:52.790Z,36.20
2022-12-14T23:41:58.649Z,42.10
2022-12-14T23:45:04.291Z,49.57
2022-12-14T23:48:09.909Z,44.53
2022-12-14T23:51:15.083Z,39.03
2022-12-14T23:54:20.256Z,39.47
2022-12-14T23:57:26.275Z,44.00
